Zim Rio Grande — 9HNV9 — position and weather

sailwx.info

Track history (hours):
 
Tides and Currents Weather Stations Pressure Air Temp Water Temp Dewpoint Dewpoint Depression Visibility Wind Speed Wind Dir Waves Ship Positions

Zim Rio Grande

Last reported at 2017-Jun-25 06:32 UTC. Time now 2017-Jun-25 09:03 UTC.
Position N 32°31' E 029°13'.

Length 260 m; draft 9.6 m.

Type: Ship (hazmat cat A). MMSI: 249253000.

Date/timePositionNaut miles runAvg speedWind from/ knotsBaromVisibWave heightAir tempDewpointWater temp
2017-Jun-25 06:32N 32°31' E 029°13'111.7
2017-Jun-25 06:27N 32°31' E 029°12'511.8
2017-Jun-25 06:00N 32°33' E 029°06'711.9
2017-Jun-25 05:27N 32°35' E 028°58'511.9
2017-Jun-25 05:00N 32°37' E 028°52'8912.3
2017-Jun-24 21:46N 33°05' E 027°12'312.5
2017-Jun-24 21:30N 33°06' E 027°08'27512.7
2017-Jun-23 23:46N 34°31' E 021°54'3612.4
2017-Jun-23 20:53N 34°42' E 021°12'512.5
2017-Jun-23 20:27N 34°44' E 021°06'612.8
2017-Jun-23 20:00N 34°45' E 020°60'1712.7
2017-Jun-23 18:43N 34°51' E 020°41'312.8
2017-Jun-23 18:30N 34°52' E 020°37'9013.1
2017-Jun-23 11:38N 35°20' E 018°53'1712.8
2017-Jun-23 10:20N 35°25' E 018°33'612.7
2017-Jun-23 09:53N 35°27' E 018°27'2612.7
2017-Jun-23 07:48N 35°35' E 017°56'412.6
2017-Jun-23 07:29N 35°36' E 017°51'1912.5
2017-Jun-23 06:00N 35°42' E 017°29'10012.6
2017-Jun-22 22:06N 36°13' E 015°32'112.2
2017-Jun-22 22:00N 36°13' E 015°31'612.4
2017-Jun-22 21:30N 36°15' E 015°23'612.6
2017-Jun-22 21:00N 36°17' E 015°16'713.1
2017-Jun-22 20:30N 36°19' E 015°08'713.5
2017-Jun-22 20:00N 36°21' E 015°00'713.7
2017-Jun-22 19:30N 36°23' E 014°52'713.5
2017-Jun-22 19:00N 36°25' E 014°44'713.3
2017-Jun-22 18:30N 36°27' E 014°36'713.4
2017-Jun-22 18:00N 36°29' E 014°28'713.3
2017-Jun-22 17:30N 36°31' E 014°20'713.3
2017-Jun-22 17:00N 36°34' E 014°13'713.3
2017-Jun-22 16:30N 36°36' E 014°05'713.3
2017-Jun-22 16:00N 36°38' E 013°57'713.4
2017-Jun-22 15:30N 36°40' E 013°49'713.5
2017-Jun-22 15:00N 36°42' E 013°41'713.5
2017-Jun-22 14:30N 36°44' E 013°33'1313.1
2017-Jun-22 13:30N 36°49' E 013°18'713.1
2017-Jun-22 13:00N 36°51' E 013°10'613.0
2017-Jun-22 12:30N 36°53' E 013°02'612.6
2017-Jun-22 12:00N 36°55' E 012°55'612.4
2017-Jun-22 11:30N 36°57' E 012°47'612.7
2017-Jun-22 11:00N 36°59' E 012°40'612.9
2017-Jun-22 10:30N 37°00' E 012°32'612.9
2017-Jun-22 10:00N 37°02' E 012°24'712.8
2017-Jun-22 09:30N 37°04' E 012°16'613.0
2017-Jun-22 09:00N 37°06' E 012°09'713.0
2017-Jun-22 08:30N 37°08' E 012°01'712.9
2017-Jun-22 07:59N 37°10' E 011°53'1112.8
2017-Jun-22 07:10N 37°13' E 011°40'212.9
2017-Jun-22 07:00N 37°14' E 011°38'712.7
2017-Jun-22 06:26N 37°17' E 011°29'1412.6
2017-Jun-22 05:21N 37°21' E 011°13'412.5
2017-Jun-22 05:00N 37°22' E 011°08'612.4
2017-Jun-22 04:30N 37°24' E 011°00'812.5
2017-Jun-22 03:52N 37°26' E 010°51'1212.7
2017-Jun-22 02:55N 37°28' E 010°36'2212.6
2017-Jun-22 01:11N 37°34' E 010°09'213.0
2017-Jun-22 01:00N 37°34' E 010°06'713.1
2017-Jun-22 00:30N 37°34' E 009°58'713.0
2017-Jun-21 23:59N 37°35' E 009°49'1612.8
2017-Jun-21 22:45N 37°35' E 009°30'312.9
2017-Jun-21 22:29N 37°35' E 009°25'613.0
2017-Jun-21 22:00N 37°35' E 009°17'3812.7
2017-Jun-21 19:00N 37°34' E 008°29'612.8
2017-Jun-21 18:30N 37°33' E 008°21'712.9
2017-Jun-21 17:59N 37°32' E 008°13'612.8
2017-Jun-21 17:30N 37°31' E 008°05'5313.2
2017-Jun-21 13:28N 37°24' E 006°59'613.0
2017-Jun-21 13:00N 37°24' E 006°51'712.9
2017-Jun-21 12:27N 37°23' E 006°42'612.8
2017-Jun-21 11:58N 37°22' E 006°35'612.7
2017-Jun-21 11:30N 37°21' E 006°27'2312.6
2017-Jun-21 09:42N 37°18' E 005°59'212.3
2017-Jun-21 09:30N 37°18' E 005°56'1412.6
2017-Jun-21 08:22N 37°16' E 005°38'5012.7
2017-Jun-21 04:25N 37°10' E 004°36'713.4
2017-Jun-21 03:53N 37°09' E 004°27'813.4
2017-Jun-21 03:16N 37°08' E 004°17'413.2
2017-Jun-21 03:00N 37°07' E 004°12'712.9
2017-Jun-21 02:30N 37°06' E 004°04'713.1
2017-Jun-21 02:00N 37°05' E 003°56'613.1
2017-Jun-21 01:30N 37°05' E 003°48'713.1
2017-Jun-21 01:00N 37°04' E 003°40'612.9
2017-Jun-21 00:30N 37°03' E 003°32'612.8
2017-Jun-21 00:00N 37°02' E 003°24'612.8
2017-Jun-20 23:30N 37°01' E 003°16'612.7
2017-Jun-20 23:00N 36°60' E 003°08'612.6
2017-Jun-20 22:31N 36°59' E 003°00'812.6
2017-Jun-20 21:52N 36°58' E 002°50'512.6
2017-Jun-20 21:30N 36°57' E 002°45'612.5
2017-Jun-20 21:00N 36°56' E 002°37'612.2
2017-Jun-20 20:30N 36°56' E 002°29'612.1
2017-Jun-20 20:00N 36°55' E 002°22'612.1
2017-Jun-20 19:30N 36°54' E 002°15'612.1
2017-Jun-20 19:00N 36°53' E 002°07'612.3
2017-Jun-20 18:30N 36°52' E 001°60'612.3
2017-Jun-20 17:59N 36°51' E 001°52'1712.0
2017-Jun-20 16:33N 36°48' E 001°30'111.8
2017-Jun-20 16:26N 36°48' E 001°29'511.9
2017-Jun-20 16:00N 36°48' E 001°22'712.1
2017-Jun-20 15:24N 36°47' E 001°13'712.1
2017-Jun-20 14:47N 36°45' E 001°04'1012.3
2017-Jun-20 14:00N 36°44' E 000°52'712.5
2017-Jun-20 13:29N 36°43' E 000°44'612.5
2017-Jun-20 13:00N 36°42' E 000°37'712.5
2017-Jun-20 12:29N 36°41' E 000°29'612.5
2017-Jun-20 12:00N 36°40' E 000°21'612.4
2017-Jun-20 11:29N 36°39' E 000°13'612.3
2017-Jun-20 11:00N 36°38' E 000°06'612.3
2017-Jun-20 10:30N 36°38' W 000°02'612.5
2017-Jun-20 10:00N 36°37' W 000°09'712.5
2017-Jun-20 09:29N 36°36' W 000°17'612.4
2017-Jun-20 09:00N 36°35' W 000°24'1512.4
2017-Jun-20 07:49N 36°33' W 000°43'512.2
2017-Jun-20 07:23N 36°32' W 000°49'512.2
2017-Jun-20 06:57N 36°31' W 000°56'20912.6
2017-Jun-19 14:22N 36°00' W 005°11'1112.9
2017-Jun-19 13:30N 35°58' W 005°25'4311.7
2017-Jun-19 09:49N 35°55' W 006°18'411.3
2017-Jun-19 09:30N 35°55' W 006°22'4611.9
2017-Jun-19 05:36N 36°04' W 007°19'112.4
2017-Jun-19 05:29N 36°04' W 007°21'712.4
2017-Jun-19 04:56N 36°05' W 007°29'4612.6
2017-Jun-19 01:16N 36°14' W 008°25'312.5
2017-Jun-19 00:59N 36°15' W 008°29'612.5
2017-Jun-19 00:30N 36°16' W 008°37'612.6
2017-Jun-19 00:00N 36°17' W 008°45'612.2
2017-Jun-18 23:29N 36°18' W 008°52'611.6
2017-Jun-18 23:00N 36°19' W 008°59'611.7
2017-Jun-18 22:30N 36°20' W 009°06'611.9
2017-Jun-18 22:00N 36°21' W 009°13'611.6
2017-Jun-18 21:30N 36°23' W 009°20'611.6
2017-Jun-18 21:00N 36°24' W 009°27'611.6
2017-Jun-18 20:30N 36°25' W 009°35'611.5
2017-Jun-18 20:00N 36°27' W 009°41'612.0
2017-Jun-18 19:30N 36°29' W 009°49'611.8
2017-Jun-18 19:00N 36°30' W 009°55'611.8
2017-Jun-18 18:30N 36°32' W 010°02'612.1
2017-Jun-18 18:00N 36°34' W 010°10'714.7
2017-Jun-18 17:30N 36°36' W 010°18'612.7
2017-Jun-18 17:00N 36°38' W 010°26'612.5
2017-Jun-18 16:30N 36°39' W 010°34'613.0
2017-Jun-18 16:00N 36°41' W 010°41'713.1
2017-Jun-18 15:31N 36°43' W 010°49'612.9
2017-Jun-18 15:00N 36°45' W 010°57'1312.8
2017-Jun-18 14:00N 36°48' W 011°12'612.4
2017-Jun-18 13:30N 36°50' W 011°19'612.0
2017-Jun-18 13:00N 36°52' W 011°27'611.9
2017-Jun-18 12:30N 36°54' W 011°34'611.7
2017-Jun-18 12:00N 36°56' W 011°41'612.3
2017-Jun-18 11:30N 36°57' W 011°48'612.2
2017-Jun-18 11:01N 36°59' W 011°55'612.1
2017-Jun-18 10:30N 37°01' W 012°03'612.1
2017-Jun-18 10:00N 37°02' W 012°10'612.3
2017-Jun-18 09:30N 37°04' W 012°17'612.2
2017-Jun-18 09:00N 37°06' W 012°25'612.3
2017-Jun-18 08:30N 37°08' W 012°32'612.4
2017-Jun-18 08:00N 37°09' W 012°39'812.4
2017-Jun-18 07:21N 37°12' W 012°49'412.4
2017-Jun-18 07:00N 37°13' W 012°54'612.3
2017-Jun-18 06:30N 37°15' W 013°02'612.5
2017-Jun-18 06:00N 37°17' W 013°09'612.7
2017-Jun-18 05:30N 37°18' W 013°17'612.5
2017-Jun-18 05:00N 37°20' W 013°25'612.5
2017-Jun-18 04:30N 37°21' W 013°32'1112.5
2017-Jun-18 03:39N 37°25' W 013°45'212.5
2017-Jun-18 03:30N 37°25' W 013°47'612.4
2017-Jun-18 03:00N 37°27' W 013°55'612.0
2017-Jun-18 02:30N 37°29' W 014°02'611.9
2017-Jun-18 02:00N 37°30' W 014°09'611.6
2017-Jun-18 01:30N 37°32' W 014°16'611.8
2017-Jun-18 01:00N 37°34' W 014°23'611.6
2017-Jun-18 00:31N 37°35' W 014°30'611.5
2017-Jun-18 00:00N 37°36' W 014°37'611.7
2017-Jun-17 23:30N 37°38' W 014°44'612.1
2017-Jun-17 23:00N 37°41' W 014°52'711.9
2017-Jun-17 22:25N 37°43' W 015°00'511.9
2017-Jun-17 22:00N 37°44' W 015°06'612.2
2017-Jun-17 21:30N 37°45' W 015°13'611.9
2017-Jun-17 21:00N 37°47' W 015°21'611.7
2017-Jun-17 20:30N 37°48' W 015°28'612.0
2017-Jun-17 20:00N 37°49' W 015°35'612.0
2017-Jun-17 19:30N 37°51' W 015°43'1411.9
2017-Jun-17 18:21N 37°54' W 015°60'1111.7
2017-Jun-17 17:22N 37°57' W 016°14'512.0
2017-Jun-17 16:56N 37°58' W 016°20'511.9
2017-Jun-17 16:30N 37°59' W 016°27'612.0
2017-Jun-17 16:00N 38°00' W 016°34'4812.1
2017-Jun-17 12:03N 38°12' W 017°33'111.9
2017-Jun-17 11:55N 38°12' W 017°35'1412.0
2017-Jun-17 10:46N 38°15' W 017°52'412.1
2017-Jun-17 10:27N 38°16' W 017°57'612.0
2017-Jun-17 09:58N 38°18' W 018°04'511.9
2017-Jun-17 09:30N 38°19' W 018°11'612.0
2017-Jun-17 09:00N 38°20' W 018°18'712.0
2017-Jun-17 08:26N 38°22' W 018°27'511.8
2017-Jun-17 08:00N 38°23' W 018°33'811.9
2017-Jun-17 07:18N 38°25' W 018°43'612.0
2017-Jun-17 06:48N 38°26' W 018°51'412.0
2017-Jun-17 06:27N 38°27' W 018°56'911.9
2017-Jun-17 05:43N 38°29' W 019°07'311.8
2017-Jun-17 05:30N 38°30' W 019°10'611.9
2017-Jun-17 04:59N 38°31' W 019°17'23012.3
2017-Jun-16 10:23N 39°14' W 024°07'812.4
2017-Jun-16 09:42N 39°16' W 024°18'712.4
2017-Jun-16 09:05N 39°17' W 024°28'4112.7
2017-Jun-16 05:51N 39°24' W 025°20'9712.4
2017-Jun-15 22:03N 39°36' W 027°25'112.1
2017-Jun-15 21:56N 39°36' W 027°27'612.6
2017-Jun-15 21:29N 39°37' W 027°34'712.8
2017-Jun-15 20:57N 39°38' W 027°43'1012.9
2017-Jun-15 20:12N 39°39' W 027°55'213.0
2017-Jun-15 20:00N 39°39' W 027°59'713.2
2017-Jun-15 19:30N 39°40' W 028°07'713.2
2017-Jun-15 19:00N 39°41' W 028°16'612.7
2017-Jun-15 18:30N 39°42' W 028°24'612.7
2017-Jun-15 18:00N 39°43' W 028°32'613.0
2017-Jun-15 17:31N 39°43' W 028°40'612.7
2017-Jun-15 17:00N 39°44' W 028°49'612.7
2017-Jun-15 16:30N 39°45' W 028°57'612.6
2017-Jun-15 16:00N 39°46' W 029°05'612.6
2017-Jun-15 15:30N 39°47' W 029°13'612.7
2017-Jun-15 15:00N 39°47' W 029°21'1312.7
2017-Jun-15 14:00N 39°49' W 029°38'612.9
2017-Jun-15 13:30N 39°50' W 029°46'612.8
2017-Jun-15 13:00N 39°51' W 029°54'713.0
2017-Jun-15 12:29N 39°51' W 030°03'613.0
2017-Jun-15 12:00N 39°52' W 030°11'1513.1
2017-Jun-15 10:50N 39°53' W 030°31'2012.9
2017-Jun-15 09:15N 39°55' W 030°57'712.7
2017-Jun-15 08:45N 39°56' W 031°06'612.7
2017-Jun-15 08:14N 39°56' W 031°14'  
Track history (hours):
 
Tides and Currents Weather Stations Pressure Air Temp Water Temp Dewpoint Dewpoint Depression Visibility Wind Speed Wind Dir Waves Ship Positions

Zim Rio Grande

Last reported at 2017-Jun-25 06:32 UTC. Time now 2017-Jun-25 09:03 UTC.
Position N 32°31' E 029°13'.

Length 260 m; draft 9.6 m.

Type: Ship (hazmat cat A). MMSI: 249253000.

Date/timePositionNaut miles runAvg speedWind from/ knotsBaromVisibWave heightAir tempDewpointWater temp
2017-Jun-25 06:32N 32°31' E 029°13'111.7
2017-Jun-25 06:27N 32°31' E 029°12'511.8
2017-Jun-25 06:00N 32°33' E 029°06'711.9
2017-Jun-25 05:27N 32°35' E 028°58'511.9
2017-Jun-25 05:00N 32°37' E 028°52'8912.3
2017-Jun-24 21:46N 33°05' E 027°12'312.5
2017-Jun-24 21:30N 33°06' E 027°08'27512.7
2017-Jun-23 23:46N 34°31' E 021°54'3612.4
2017-Jun-23 20:53N 34°42' E 021°12'512.5
2017-Jun-23 20:27N 34°44' E 021°06'612.8
2017-Jun-23 20:00N 34°45' E 020°60'1712.7
2017-Jun-23 18:43N 34°51' E 020°41'312.8
2017-Jun-23 18:30N 34°52' E 020°37'9013.1
2017-Jun-23 11:38N 35°20' E 018°53'1712.8
2017-Jun-23 10:20N 35°25' E 018°33'612.7
2017-Jun-23 09:53N 35°27' E 018°27'2612.7
2017-Jun-23 07:48N 35°35' E 017°56'412.6
2017-Jun-23 07:29N 35°36' E 017°51'1912.5
2017-Jun-23 06:00N 35°42' E 017°29'10012.6
2017-Jun-22 22:06N 36°13' E 015°32'112.2
2017-Jun-22 22:00N 36°13' E 015°31'612.4
2017-Jun-22 21:30N 36°15' E 015°23'612.6
2017-Jun-22 21:00N 36°17' E 015°16'713.1
2017-Jun-22 20:30N 36°19' E 015°08'713.5
2017-Jun-22 20:00N 36°21' E 015°00'713.7
2017-Jun-22 19:30N 36°23' E 014°52'713.5
2017-Jun-22 19:00N 36°25' E 014°44'713.3
2017-Jun-22 18:30N 36°27' E 014°36'713.4
2017-Jun-22 18:00N 36°29' E 014°28'713.3
2017-Jun-22 17:30N 36°31' E 014°20'713.3
2017-Jun-22 17:00N 36°34' E 014°13'713.3
2017-Jun-22 16:30N 36°36' E 014°05'713.3
2017-Jun-22 16:00N 36°38' E 013°57'713.4
2017-Jun-22 15:30N 36°40' E 013°49'713.5
2017-Jun-22 15:00N 36°42' E 013°41'713.5
2017-Jun-22 14:30N 36°44' E 013°33'1313.1
2017-Jun-22 13:30N 36°49' E 013°18'713.1
2017-Jun-22 13:00N 36°51' E 013°10'613.0
2017-Jun-22 12:30N 36°53' E 013°02'612.6
2017-Jun-22 12:00N 36°55' E 012°55'612.4
2017-Jun-22 11:30N 36°57' E 012°47'612.7
2017-Jun-22 11:00N 36°59' E 012°40'612.9
2017-Jun-22 10:30N 37°00' E 012°32'612.9
2017-Jun-22 10:00N 37°02' E 012°24'712.8
2017-Jun-22 09:30N 37°04' E 012°16'613.0
2017-Jun-22 09:00N 37°06' E 012°09'713.0
2017-Jun-22 08:30N 37°08' E 012°01'712.9
2017-Jun-22 07:59N 37°10' E 011°53'1112.8
2017-Jun-22 07:10N 37°13' E 011°40'212.9
2017-Jun-22 07:00N 37°14' E 011°38'712.7
2017-Jun-22 06:26N 37°17' E 011°29'1412.6
2017-Jun-22 05:21N 37°21' E 011°13'412.5
2017-Jun-22 05:00N 37°22' E 011°08'612.4
2017-Jun-22 04:30N 37°24' E 011°00'812.5
2017-Jun-22 03:52N 37°26' E 010°51'1212.7
2017-Jun-22 02:55N 37°28' E 010°36'2212.6
2017-Jun-22 01:11N 37°34' E 010°09'213.0
2017-Jun-22 01:00N 37°34' E 010°06'713.1
2017-Jun-22 00:30N 37°34' E 009°58'713.0
2017-Jun-21 23:59N 37°35' E 009°49'1612.8
2017-Jun-21 22:45N 37°35' E 009°30'312.9
2017-Jun-21 22:29N 37°35' E 009°25'613.0
2017-Jun-21 22:00N 37°35' E 009°17'3812.7
2017-Jun-21 19:00N 37°34' E 008°29'612.8
2017-Jun-21 18:30N 37°33' E 008°21'712.9
2017-Jun-21 17:59N 37°32' E 008°13'612.8
2017-Jun-21 17:30N 37°31' E 008°05'5313.2
2017-Jun-21 13:28N 37°24' E 006°59'613.0
2017-Jun-21 13:00N 37°24' E 006°51'712.9
2017-Jun-21 12:27N 37°23' E 006°42'612.8
2017-Jun-21 11:58N 37°22' E 006°35'612.7
2017-Jun-21 11:30N 37°21' E 006°27'2312.6
2017-Jun-21 09:42N 37°18' E 005°59'212.3
2017-Jun-21 09:30N 37°18' E 005°56'1412.6
2017-Jun-21 08:22N 37°16' E 005°38'5012.7
2017-Jun-21 04:25N 37°10' E 004°36'713.4
2017-Jun-21 03:53N 37°09' E 004°27'813.4
2017-Jun-21 03:16N 37°08' E 004°17'413.2
2017-Jun-21 03:00N 37°07' E 004°12'712.9
2017-Jun-21 02:30N 37°06' E 004°04'713.1
2017-Jun-21 02:00N 37°05' E 003°56'613.1
2017-Jun-21 01:30N 37°05' E 003°48'713.1
2017-Jun-21 01:00N 37°04' E 003°40'612.9
2017-Jun-21 00:30N 37°03' E 003°32'612.8
2017-Jun-21 00:00N 37°02' E 003°24'612.8
2017-Jun-20 23:30N 37°01' E 003°16'612.7
2017-Jun-20 23:00N 36°60' E 003°08'612.6
2017-Jun-20 22:31N 36°59' E 003°00'812.6
2017-Jun-20 21:52N 36°58' E 002°50'512.6
2017-Jun-20 21:30N 36°57' E 002°45'612.5
2017-Jun-20 21:00N 36°56' E 002°37'612.2
2017-Jun-20 20:30N 36°56' E 002°29'612.1
2017-Jun-20 20:00N 36°55' E 002°22'612.1
2017-Jun-20 19:30N 36°54' E 002°15'612.1
2017-Jun-20 19:00N 36°53' E 002°07'612.3
2017-Jun-20 18:30N 36°52' E 001°60'612.3
2017-Jun-20 17:59N 36°51' E 001°52'1712.0
2017-Jun-20 16:33N 36°48' E 001°30'111.8
2017-Jun-20 16:26N 36°48' E 001°29'511.9
2017-Jun-20 16:00N 36°48' E 001°22'712.1
2017-Jun-20 15:24N 36°47' E 001°13'712.1
2017-Jun-20 14:47N 36°45' E 001°04'1012.3
2017-Jun-20 14:00N 36°44' E 000°52'712.5
2017-Jun-20 13:29N 36°43' E 000°44'612.5
2017-Jun-20 13:00N 36°42' E 000°37'712.5
2017-Jun-20 12:29N 36°41' E 000°29'612.5
2017-Jun-20 12:00N 36°40' E 000°21'612.4
2017-Jun-20 11:29N 36°39' E 000°13'612.3
2017-Jun-20 11:00N 36°38' E 000°06'612.3
2017-Jun-20 10:30N 36°38' W 000°02'612.5
2017-Jun-20 10:00N 36°37' W 000°09'712.5
2017-Jun-20 09:29N 36°36' W 000°17'612.4
2017-Jun-20 09:00N 36°35' W 000°24'1512.4
2017-Jun-20 07:49N 36°33' W 000°43'512.2
2017-Jun-20 07:23N 36°32' W 000°49'512.2
2017-Jun-20 06:57N 36°31' W 000°56'20912.6
2017-Jun-19 14:22N 36°00' W 005°11'1112.9
2017-Jun-19 13:30N 35°58' W 005°25'4311.7
2017-Jun-19 09:49N 35°55' W 006°18'411.3
2017-Jun-19 09:30N 35°55' W 006°22'4611.9
2017-Jun-19 05:36N 36°04' W 007°19'112.4
2017-Jun-19 05:29N 36°04' W 007°21'712.4
2017-Jun-19 04:56N 36°05' W 007°29'4612.6
2017-Jun-19 01:16N 36°14' W 008°25'312.5
2017-Jun-19 00:59N 36°15' W 008°29'612.5
2017-Jun-19 00:30N 36°16' W 008°37'612.6
2017-Jun-19 00:00N 36°17' W 008°45'612.2
2017-Jun-18 23:29N 36°18' W 008°52'611.6
2017-Jun-18 23:00N 36°19' W 008°59'611.7
2017-Jun-18 22:30N 36°20' W 009°06'611.9
2017-Jun-18 22:00N 36°21' W 009°13'611.6
2017-Jun-18 21:30N 36°23' W 009°20'611.6
2017-Jun-18 21:00N 36°24' W 009°27'611.6
2017-Jun-18 20:30N 36°25' W 009°35'611.5
2017-Jun-18 20:00N 36°27' W 009°41'612.0
2017-Jun-18 19:30N 36°29' W 009°49'611.8
2017-Jun-18 19:00N 36°30' W 009°55'611.8
2017-Jun-18 18:30N 36°32' W 010°02'612.1
2017-Jun-18 18:00N 36°34' W 010°10'714.7
2017-Jun-18 17:30N 36°36' W 010°18'612.7
2017-Jun-18 17:00N 36°38' W 010°26'612.5
2017-Jun-18 16:30N 36°39' W 010°34'613.0
2017-Jun-18 16:00N 36°41' W 010°41'713.1
2017-Jun-18 15:31N 36°43' W 010°49'612.9
2017-Jun-18 15:00N 36°45' W 010°57'1312.8
2017-Jun-18 14:00N 36°48' W 011°12'612.4
2017-Jun-18 13:30N 36°50' W 011°19'612.0
2017-Jun-18 13:00N 36°52' W 011°27'611.9
2017-Jun-18 12:30N 36°54' W 011°34'611.7
2017-Jun-18 12:00N 36°56' W 011°41'612.3
2017-Jun-18 11:30N 36°57' W 011°48'612.2
2017-Jun-18 11:01N 36°59' W 011°55'612.1
2017-Jun-18 10:30N 37°01' W 012°03'612.1
2017-Jun-18 10:00N 37°02' W 012°10'612.3
2017-Jun-18 09:30N 37°04' W 012°17'612.2
2017-Jun-18 09:00N 37°06' W 012°25'612.3
2017-Jun-18 08:30N 37°08' W 012°32'612.4
2017-Jun-18 08:00N 37°09' W 012°39'812.4
2017-Jun-18 07:21N 37°12' W 012°49'412.4
2017-Jun-18 07:00N 37°13' W 012°54'612.3
2017-Jun-18 06:30N 37°15' W 013°02'612.5
2017-Jun-18 06:00N 37°17' W 013°09'612.7
2017-Jun-18 05:30N 37°18' W 013°17'612.5
2017-Jun-18 05:00N 37°20' W 013°25'612.5
2017-Jun-18 04:30N 37°21' W 013°32'1112.5
2017-Jun-18 03:39N 37°25' W 013°45'212.5
2017-Jun-18 03:30N 37°25' W 013°47'612.4
2017-Jun-18 03:00N 37°27' W 013°55'612.0
2017-Jun-18 02:30N 37°29' W 014°02'611.9
2017-Jun-18 02:00N 37°30' W 014°09'611.6
2017-Jun-18 01:30N 37°32' W 014°16'611.8
2017-Jun-18 01:00N 37°34' W 014°23'611.6
2017-Jun-18 00:31N 37°35' W 014°30'611.5
2017-Jun-18 00:00N 37°36' W 014°37'611.7
2017-Jun-17 23:30N 37°38' W 014°44'612.1
2017-Jun-17 23:00N 37°41' W 014°52'711.9
2017-Jun-17 22:25N 37°43' W 015°00'511.9
2017-Jun-17 22:00N 37°44' W 015°06'612.2
2017-Jun-17 21:30N 37°45' W 015°13'611.9
2017-Jun-17 21:00N 37°47' W 015°21'611.7
2017-Jun-17 20:30N 37°48' W 015°28'612.0
2017-Jun-17 20:00N 37°49' W 015°35'612.0
2017-Jun-17 19:30N 37°51' W 015°43'1411.9
2017-Jun-17 18:21N 37°54' W 015°60'1111.7
2017-Jun-17 17:22N 37°57' W 016°14'512.0
2017-Jun-17 16:56N 37°58' W 016°20'511.9
2017-Jun-17 16:30N 37°59' W 016°27'612.0
2017-Jun-17 16:00N 38°00' W 016°34'4812.1
2017-Jun-17 12:03N 38°12' W 017°33'111.9
2017-Jun-17 11:55N 38°12' W 017°35'1412.0
2017-Jun-17 10:46N 38°15' W 017°52'412.1
2017-Jun-17 10:27N 38°16' W 017°57'612.0
2017-Jun-17 09:58N 38°18' W 018°04'511.9
2017-Jun-17 09:30N 38°19' W 018°11'612.0
2017-Jun-17 09:00N 38°20' W 018°18'712.0
2017-Jun-17 08:26N 38°22' W 018°27'511.8
2017-Jun-17 08:00N 38°23' W 018°33'811.9
2017-Jun-17 07:18N 38°25' W 018°43'612.0
2017-Jun-17 06:48N 38°26' W 018°51'412.0
2017-Jun-17 06:27N 38°27' W 018°56'911.9
2017-Jun-17 05:43N 38°29' W 019°07'311.8
2017-Jun-17 05:30N 38°30' W 019°10'611.9
2017-Jun-17 04:59N 38°31' W 019°17'23012.3
2017-Jun-16 10:23N 39°14' W 024°07'812.4
2017-Jun-16 09:42N 39°16' W 024°18'712.4
2017-Jun-16 09:05N 39°17' W 024°28'4112.7
2017-Jun-16 05:51N 39°24' W 025°20'9712.4
2017-Jun-15 22:03N 39°36' W 027°25'112.1
2017-Jun-15 21:56N 39°36' W 027°27'612.6
2017-Jun-15 21:29N 39°37' W 027°34'712.8
2017-Jun-15 20:57N 39°38' W 027°43'1012.9
2017-Jun-15 20:12N 39°39' W 027°55'213.0
2017-Jun-15 20:00N 39°39' W 027°59'713.2
2017-Jun-15 19:30N 39°40' W 028°07'713.2
2017-Jun-15 19:00N 39°41' W 028°16'612.7
2017-Jun-15 18:30N 39°42' W 028°24'612.7
2017-Jun-15 18:00N 39°43' W 028°32'613.0
2017-Jun-15 17:31N 39°43' W 028°40'612.7
2017-Jun-15 17:00N 39°44' W 028°49'612.7
2017-Jun-15 16:30N 39°45' W 028°57'612.6
2017-Jun-15 16:00N 39°46' W 029°05'612.6
2017-Jun-15 15:30N 39°47' W 029°13'612.7
2017-Jun-15 15:00N 39°47' W 029°21'1312.7
2017-Jun-15 14:00N 39°49' W 029°38'612.9
2017-Jun-15 13:30N 39°50' W 029°46'612.8
2017-Jun-15 13:00N 39°51' W 029°54'713.0
2017-Jun-15 12:29N 39°51' W 030°03'613.0
2017-Jun-15 12:00N 39°52' W 030°11'1513.1
2017-Jun-15 10:50N 39°53' W 030°31'2012.9
2017-Jun-15 09:15N 39°55' W 030°57'712.7
2017-Jun-15 08:45N 39°56' W 031°06'612.7
2017-Jun-15 08:14N 39°56' W 031°14'  

Dump ship's entire track history